createdAt,value
2023-01-19T00:00:15.698Z,987.61
2023-01-19T00:01:15.598Z,987.59
2023-01-19T00:02:15.542Z,987.59
2023-01-19T00:03:15.480Z,987.62
2023-01-19T00:04:15.781Z,987.62
2023-01-19T00:05:15.481Z,987.63
2023-01-19T00:06:15.590Z,987.66
2023-01-19T00:07:15.696Z,987.64
2023-01-19T00:08:15.462Z,987.70
2023-01-19T00:09:15.734Z,987.71
2023-01-19T00:10:15.433Z,987.69
2023-01-19T00:11:15.425Z,987.69
2023-01-19T00:12:15.463Z,987.71
2023-01-19T00:13:15.393Z,987.71
2023-01-19T00:14:15.346Z,987.71
2023-01-19T00:15:15.372Z,987.75
2023-01-19T00:16:15.389Z,987.74
2023-01-19T00:17:15.313Z,987.71
2023-01-19T00:18:15.395Z,987.78
2023-01-19T00:19:15.283Z,987.81
2023-01-19T00:20:15.478Z,987.78
2023-01-19T00:21:15.314Z,987.79
2023-01-19T00:22:15.267Z,987.79
2023-01-19T00:23:15.261Z,987.82
2023-01-19T00:24:15.294Z,987.84
2023-01-19T00:25:15.216Z,987.88
2023-01-19T00:26:15.232Z,987.89
2023-01-19T00:27:15.436Z,987.87
2023-01-19T00:28:15.187Z,987.92
2023-01-19T00:29:15.154Z,987.94
2023-01-19T00:30:15.239Z,988.01
2023-01-19T00:31:15.213Z,988.04
2023-01-19T00:32:15.129Z,988.02
2023-01-19T00:33:15.164Z,988.02
2023-01-19T00:34:15.120Z,988.06
2023-01-19T00:35:15.392Z,988.06
2023-01-19T00:36:15.088Z,988.02
2023-01-19T00:37:15.073Z,987.96
2023-01-19T00:38:15.145Z,988.02
2023-01-19T00:39:15.044Z,987.99
2023-01-19T00:40:15.584Z,987.99
2023-01-19T00:41:15.031Z,988.00
2023-01-19T00:42:15.867Z,987.99
2023-01-19T00:43:14.997Z,988.01
2023-01-19T00:44:15.288Z,988.00
2023-01-19T00:45:14.968Z,988.04
2023-01-19T00:46:14.969Z,988.04
2023-01-19T00:47:15.212Z,988.05
2023-01-19T00:48:16.292Z,988.07
2023-01-19T00:49:14.920Z,988.11
2023-01-19T00:50:14.936Z,988.11
2023-01-19T00:51:14.917Z,988.08
2023-01-19T00:52:14.911Z,988.10
2023-01-19T00:53:14.882Z,988.11
2023-01-19T00:54:14.840Z,988.13
2023-01-19T00:55:18.937Z,988.11
2023-01-19T00:56:14.881Z,988.19
2023-01-19T00:57:14.847Z,988.16
2023-01-19T00:58:14.838Z,988.15
2023-01-19T00:59:14.830Z,988.20
2023-01-19T01:00:14.820Z,988.16
2023-01-19T01:01:14.865Z,988.17
2023-01-19T01:02:14.978Z,988.18
2023-01-19T01:03:14.772Z,988.18
2023-01-19T01:04:14.794Z,988.15
2023-01-19T01:05:14.785Z,988.17
2023-01-19T01:06:14.971Z,988.10
2023-01-19T01:07:14.723Z,988.12
2023-01-19T01:08:14.702Z,988.12
2023-01-19T01:09:14.706Z,988.12
2023-01-19T01:10:15.685Z,988.11
2023-01-19T01:11:14.667Z,988.14
2023-01-19T01:12:14.656Z,988.16
2023-01-19T01:13:23.652Z,988.16
2023-01-19T01:14:15.609Z,988.17
2023-01-19T01:15:14.625Z,988.21
2023-01-19T01:16:14.721Z,988.22
2023-01-19T01:17:14.592Z,988.21
2023-01-19T01:18:14.564Z,988.22
2023-01-19T01:19:14.621Z,988.23
2023-01-19T01:20:14.560Z,988.22
2023-01-19T01:21:14.796Z,988.23
2023-01-19T01:22:14.621Z,988.29
2023-01-19T01:23:14.526Z,988.24
2023-01-19T01:24:14.531Z,988.24
2023-01-19T01:25:14.474Z,988.22
2023-01-19T01:26:14.732Z,988.22
2023-01-19T01:27:14.443Z,988.21
2023-01-19T01:28:14.582Z,988.28
2023-01-19T01:29:14.439Z,988.30
2023-01-19T01:30:14.588Z,988.35
2023-01-19T01:31:14.752Z,988.28
2023-01-19T01:32:14.416Z,988.29
2023-01-19T01:33:14.388Z,988.32
2023-01-19T01:34:14.426Z,988.33
2023-01-19T01:35:14.359Z,988.32
2023-01-19T01:36:14.341Z,988.31
2023-01-19T01:37:14.326Z,988.32
2023-01-19T01:38:14.343Z,988.30
2023-01-19T01:39:14.316Z,988.31
2023-01-19T01:40:14.295Z,988.31
2023-01-19T01:41:14.532Z,988.36
2023-01-19T01:42:14.545Z,988.37
2023-01-19T01:43:14.250Z,988.30
2023-01-19T01:44:14.250Z,988.35
2023-01-19T01:45:14.620Z,988.34
2023-01-19T01:46:14.267Z,988.33
2023-01-19T01:47:14.207Z,988.36
2023-01-19T01:48:14.192Z,988.35
2023-01-19T01:49:14.174Z,988.33
2023-01-19T01:50:14.180Z,988.33
2023-01-19T01:51:14.456Z,988.30
2023-01-19T01:52:14.444Z,988.27
2023-01-19T01:53:14.455Z,988.28
2023-01-19T01:54:14.112Z,988.26
2023-01-19T01:55:14.121Z,988.27
2023-01-19T01:56:14.096Z,988.28
2023-01-19T01:57:14.076Z,988.19
2023-01-19T01:58:14.091Z,988.25
2023-01-19T01:59:14.104Z,988.23
2023-01-19T02:00:14.331Z,988.22
2023-01-19T02:01:14.365Z,988.23
2023-01-19T02:02:14.020Z,988.23
2023-01-19T02:03:14.006Z,988.25
2023-01-19T02:04:14.008Z,988.24
2023-01-19T02:05:13.990Z,988.25
2023-01-19T02:06:14.259Z,988.23
2023-01-19T02:07:13.960Z,988.23
2023-01-19T02:08:14.207Z,988.24
2023-01-19T02:09:13.943Z,988.29
2023-01-19T02:10:13.998Z,988.26
2023-01-19T02:11:13.915Z,988.29
2023-01-19T02:12:13.980Z,988.26
2023-01-19T02:13:14.157Z,988.25
2023-01-19T02:14:13.866Z,988.24
2023-01-19T02:15:14.146Z,988.25
2023-01-19T02:16:14.108Z,988.29
2023-01-19T02:17:13.853Z,988.29
2023-01-19T02:18:13.886Z,988.29
2023-01-19T02:19:13.800Z,988.32
2023-01-19T02:20:13.799Z,988.31
2023-01-19T02:21:13.792Z,988.33
2023-01-19T02:22:13.757Z,988.35
2023-01-19T02:23:13.766Z,988.33
2023-01-19T02:24:13.783Z,988.36
2023-01-19T02:25:13.757Z,988.35
2023-01-19T02:26:13.757Z,988.37
2023-01-19T02:27:13.722Z,988.40
2023-01-19T02:28:13.687Z,988.37
2023-01-19T02:29:13.681Z,988.44
2023-01-19T02:30:13.681Z,988.42
2023-01-19T02:31:13.660Z,988.43
2023-01-19T02:32:13.641Z,988.42
2023-01-19T02:33:13.884Z,988.47
2023-01-19T02:34:13.634Z,988.44
2023-01-19T02:35:13.632Z,988.48
2023-01-19T02:36:20.840Z,988.43
2023-01-19T02:37:13.626Z,988.47
2023-01-19T02:38:13.892Z,988.45
2023-01-19T02:39:13.555Z,988.49
2023-01-19T02:40:13.565Z,988.51
2023-01-19T02:41:13.558Z,988.47
2023-01-19T02:42:13.578Z,988.48
2023-01-19T02:43:13.529Z,988.47
2023-01-19T02:44:13.535Z,988.47
2023-01-19T02:45:13.505Z,988.50
2023-01-19T02:46:13.543Z,988.47
2023-01-19T02:47:13.485Z,988.45
2023-01-19T02:48:13.443Z,988.45
2023-01-19T02:49:13.422Z,988.44
2023-01-19T02:50:13.695Z,988.48
2023-01-19T02:51:13.457Z,988.46
2023-01-19T02:52:13.383Z,988.47
2023-01-19T02:53:13.469Z,988.44
2023-01-19T02:54:13.418Z,988.46
2023-01-19T02:55:15.130Z,988.47
2023-01-19T02:56:16.119Z,988.44
2023-01-19T02:57:13.339Z,988.42
2023-01-19T02:58:13.339Z,988.43
2023-01-19T02:59:13.423Z,988.38
2023-01-19T03:00:13.304Z,988.41
2023-01-19T03:01:13.449Z,988.43
2023-01-19T03:02:13.565Z,988.44
2023-01-19T03:03:13.266Z,988.44
2023-01-19T03:04:13.268Z,988.42
2023-01-19T03:05:13.483Z,988.39
2023-01-19T03:06:13.241Z,988.42
2023-01-19T03:07:13.197Z,988.39
2023-01-19T03:08:13.193Z,988.43
2023-01-19T03:09:13.203Z,988.38
2023-01-19T03:10:13.179Z,988.33
2023-01-19T03:11:13.518Z,988.33
2023-01-19T03:12:13.436Z,988.34
2023-01-19T03:13:13.167Z,988.32
2023-01-19T03:14:13.146Z,988.34
2023-01-19T03:15:13.113Z,988.30
2023-01-19T03:16:13.203Z,988.30
2023-01-19T03:17:13.119Z,988.32
2023-01-19T03:18:13.080Z,988.25
2023-01-19T03:19:13.082Z,988.31
2023-01-19T03:20:13.078Z,988.28
2023-01-19T03:21:13.041Z,988.35
2023-01-19T03:22:13.053Z,988.32
2023-01-19T03:23:13.034Z,988.34
2023-01-19T03:24:13.310Z,988.27
2023-01-19T03:25:12.983Z,988.29
2023-01-19T03:26:13.011Z,988.32
2023-01-19T03:27:13.233Z,988.33
2023-01-19T03:28:12.972Z,988.35
2023-01-19T03:29:12.969Z,988.39
2023-01-19T03:30:12.946Z,988.42
2023-01-19T03:31:12.974Z,988.39
2023-01-19T03:32:12.895Z,988.39
2023-01-19T03:33:12.894Z,988.40
2023-01-19T03:34:13.168Z,988.43
2023-01-19T03:35:12.870Z,988.45
2023-01-19T03:36:12.870Z,988.43
2023-01-19T03:37:13.167Z,988.48
2023-01-19T03:38:12.868Z,988.49
2023-01-19T03:39:12.829Z,988.49
2023-01-19T03:40:13.096Z,988.53
2023-01-19T03:41:12.800Z,988.50
2023-01-19T03:42:12.786Z,988.53
2023-01-19T03:43:12.760Z,988.54
2023-01-19T03:44:12.768Z,988.58
2023-01-19T03:45:12.762Z,988.59
2023-01-19T03:46:12.798Z,988.62
2023-01-19T03:47:13.047Z,988.54
2023-01-19T03:48:12.752Z,988.57
2023-01-19T03:49:12.705Z,988.59
2023-01-19T03:50:12.676Z,988.58
2023-01-19T03:51:12.690Z,988.56
2023-01-19T03:52:12.635Z,988.57
2023-01-19T03:53:12.646Z,988.55
2023-01-19T03:54:13.023Z,988.55
2023-01-19T03:55:12.672Z,988.53
2023-01-19T03:56:12.613Z,988.56
2023-01-19T03:57:12.610Z,988.58
2023-01-19T03:58:12.609Z,988.56
2023-01-19T03:59:12.577Z,988.56
2023-01-19T04:00:12.544Z,988.53
2023-01-19T04:01:12.859Z,988.57
2023-01-19T04:02:12.624Z,988.56
2023-01-19T04:03:12.542Z,988.54
2023-01-19T04:04:12.523Z,988.56
2023-01-19T04:05:12.546Z,988.60
2023-01-19T04:06:12.492Z,988.60
2023-01-19T04:07:12.494Z,988.57
2023-01-19T04:08:12.470Z,988.53
2023-01-19T04:09:12.444Z,988.58
2023-01-19T04:10:12.427Z,988.61
2023-01-19T04:11:12.462Z,988.62
2023-01-19T04:12:12.428Z,988.65
2023-01-19T04:13:12.493Z,988.63
2023-01-19T04:14:12.389Z,988.60
2023-01-19T04:15:12.634Z,988.60
2023-01-19T04:16:12.455Z,988.63
2023-01-19T04:17:12.659Z,988.58
2023-01-19T04:18:12.329Z,988.58
2023-01-19T04:19:12.332Z,988.59
2023-01-19T04:20:12.313Z,988.58
2023-01-19T04:21:12.324Z,988.63
2023-01-19T04:22:12.282Z,988.60
2023-01-19T04:23:12.306Z,988.61
2023-01-19T04:24:12.265Z,988.63
2023-01-19T04:25:12.246Z,988.58
2023-01-19T04:26:12.276Z,988.61
2023-01-19T04:27:12.236Z,988.60
2023-01-19T04:28:12.229Z,988.64
2023-01-19T04:29:12.209Z,988.65
2023-01-19T04:30:12.217Z,988.65
2023-01-19T04:31:12.332Z,988.69
2023-01-19T04:32:12.157Z,988.71
2023-01-19T04:33:12.155Z,988.75
2023-01-19T04:34:12.139Z,988.75
2023-01-19T04:35:12.140Z,988.80
2023-01-19T04:36:12.110Z,988.76
2023-01-19T04:37:12.178Z,988.75
2023-01-19T04:38:12.139Z,988.74
2023-01-19T04:39:12.107Z,988.70
2023-01-19T04:40:12.082Z,988.65
2023-01-19T04:41:12.078Z,988.70
2023-01-19T04:42:12.053Z,988.67
2023-01-19T04:43:12.037Z,988.67
2023-01-19T04:44:12.321Z,988.71
2023-01-19T04:45:12.031Z,988.79
2023-01-19T04:46:12.035Z,988.71
2023-01-19T04:47:12.235Z,988.70
2023-01-19T04:48:12.002Z,988.72
2023-01-19T04:49:11.964Z,988.71
2023-01-19T04:50:11.961Z,988.73
2023-01-19T04:51:11.940Z,988.74
2023-01-19T04:52:11.934Z,988.74
2023-01-19T04:53:11.891Z,988.70
2023-01-19T04:54:11.863Z,988.67
2023-01-19T04:55:11.891Z,988.69
2023-01-19T04:56:11.860Z,988.72
2023-01-19T04:57:11.844Z,988.68
2023-01-19T04:58:11.844Z,988.73
2023-01-19T04:59:12.108Z,988.71
2023-01-19T05:00:11.830Z,988.70
2023-01-19T05:01:11.904Z,988.69
2023-01-19T05:02:11.836Z,988.68
2023-01-19T05:03:11.828Z,988.68
2023-01-19T05:04:12.036Z,988.67
2023-01-19T05:05:11.777Z,988.73
2023-01-19T05:06:11.745Z,988.74
2023-01-19T05:07:11.755Z,988.73
2023-01-19T05:08:11.935Z,988.72
2023-01-19T05:09:11.700Z,988.72
2023-01-19T05:10:11.703Z,988.68
2023-01-19T05:11:11.992Z,988.73
2023-01-19T05:12:11.677Z,988.72
2023-01-19T05:13:11.640Z,988.78
2023-01-19T05:14:11.694Z,988.72
2023-01-19T05:15:11.716Z,988.78
2023-01-19T05:16:12.479Z,988.78
2023-01-19T05:17:11.618Z,988.75
2023-01-19T05:18:11.610Z,988.74
2023-01-19T05:19:12.213Z,988.71
2023-01-19T05:20:11.569Z,988.76
2023-01-19T05:21:11.588Z,988.78
2023-01-19T05:22:11.525Z,988.74
2023-01-19T05:23:11.560Z,988.74
2023-01-19T05:24:11.817Z,988.76
2023-01-19T05:25:11.535Z,988.86
2023-01-19T05:26:11.526Z,988.81
2023-01-19T05:27:11.490Z,988.88
2023-01-19T05:28:11.468Z,988.87
2023-01-19T05:29:11.443Z,988.83
2023-01-19T05:30:11.445Z,988.86
2023-01-19T05:31:16.900Z,988.88
2023-01-19T05:32:11.443Z,988.88
2023-01-19T05:33:11.391Z,988.82
2023-01-19T05:34:11.683Z,988.83
2023-01-19T05:35:11.426Z,988.86
2023-01-19T05:36:11.448Z,988.82
2023-01-19T05:37:11.352Z,988.83
2023-01-19T05:38:11.335Z,988.81
2023-01-19T05:39:11.364Z,988.85
2023-01-19T05:40:11.293Z,988.87
2023-01-19T05:41:11.332Z,988.86
2023-01-19T05:42:11.290Z,988.89
2023-01-19T05:43:11.281Z,988.91
2023-01-19T05:44:11.257Z,988.94
2023-01-19T05:45:11.244Z,988.96
2023-01-19T05:46:11.256Z,988.92
2023-01-19T05:47:11.210Z,988.95
2023-01-19T05:48:11.247Z,988.95
2023-01-19T05:49:11.224Z,988.88
2023-01-19T05:50:11.178Z,988.94
2023-01-19T05:51:11.198Z,988.98
2023-01-19T05:52:11.152Z,988.96
2023-01-19T05:53:11.228Z,988.95
2023-01-19T05:54:11.394Z,988.95
2023-01-19T05:55:11.125Z,988.99
2023-01-19T05:56:11.135Z,989.00
2023-01-19T05:57:11.101Z,989.01
2023-01-19T05:58:11.355Z,988.96
2023-01-19T05:59:11.353Z,989.00
2023-01-19T06:00:11.109Z,989.01
2023-01-19T06:01:11.123Z,988.96
2023-01-19T06:02:11.160Z,988.93
2023-01-19T06:03:11.079Z,988.94
2023-01-19T06:04:11.033Z,988.97
2023-01-19T06:05:11.012Z,988.93
2023-01-19T06:06:11.020Z,988.94
2023-01-19T06:07:10.975Z,988.97
2023-01-19T06:08:10.981Z,988.94
2023-01-19T06:09:11.261Z,989.02
2023-01-19T06:10:10.964Z,988.94
2023-01-19T06:11:10.943Z,988.94
2023-01-19T06:12:10.912Z,988.94
2023-01-19T06:13:10.936Z,988.95
2023-01-19T06:14:10.880Z,988.99
2023-01-19T06:15:11.187Z,988.97
2023-01-19T06:16:10.915Z,988.91
2023-01-19T06:17:10.859Z,988.96
2023-01-19T06:18:10.840Z,988.92
2023-01-19T06:19:10.850Z,988.94
2023-01-19T06:20:10.839Z,988.89
2023-01-19T06:21:10.852Z,988.90
2023-01-19T06:22:10.785Z,988.96
2023-01-19T06:23:10.800Z,988.91
2023-01-19T06:24:11.245Z,988.92
2023-01-19T06:25:10.810Z,988.99
2023-01-19T06:26:11.002Z,988.99
2023-01-19T06:27:10.750Z,988.96
2023-01-19T06:28:10.731Z,988.91
2023-01-19T06:29:10.730Z,988.97
2023-01-19T06:30:10.685Z,988.94
2023-01-19T06:31:10.755Z,988.96
2023-01-19T06:32:10.677Z,988.97
2023-01-19T06:33:10.681Z,988.99
2023-01-19T06:34:10.666Z,989.02
2023-01-19T06:35:10.633Z,989.01
2023-01-19T06:36:10.619Z,988.97
2023-01-19T06:37:10.627Z,989.03
2023-01-19T06:38:10.595Z,989.04
2023-01-19T06:39:10.875Z,989.04
2023-01-19T06:40:11.121Z,989.06
2023-01-19T06:41:10.572Z,989.04
2023-01-19T06:42:10.780Z,989.03
2023-01-19T06:43:10.523Z,989.01
2023-01-19T06:44:10.745Z,989.04
2023-01-19T06:45:10.512Z,989.00
2023-01-19T06:46:10.853Z,988.98
2023-01-19T06:47:15.494Z,988.98
2023-01-19T06:48:11.488Z,989.03
2023-01-19T06:49:13.221Z,989.06
2023-01-19T06:50:10.454Z,989.03
2023-01-19T06:51:10.461Z,989.05
2023-01-19T06:52:10.433Z,989.09
2023-01-19T06:53:10.435Z,989.13
2023-01-19T06:54:10.430Z,989.09
2023-01-19T06:55:10.397Z,989.09
2023-01-19T06:56:10.381Z,989.08
2023-01-19T06:57:10.651Z,989.03
2023-01-19T06:58:10.335Z,989.04
2023-01-19T06:59:10.345Z,989.02
2023-01-19T07:00:10.304Z,988.99
2023-01-19T07:01:10.415Z,989.02
2023-01-19T07:02:26.429Z,989.07
2023-01-19T07:03:11.312Z,989.12
2023-01-19T07:04:10.293Z,989.12
2023-01-19T07:05:10.264Z,989.14
2023-01-19T07:06:10.865Z,989.18
2023-01-19T07:07:10.224Z,989.20
2023-01-19T07:08:10.453Z,989.22
2023-01-19T07:09:10.241Z,989.24
2023-01-19T07:10:10.252Z,989.22
2023-01-19T07:11:26.217Z,989.16
2023-01-19T07:12:11.266Z,989.22
2023-01-19T07:13:10.151Z,989.24
2023-01-19T07:14:14.036Z,989.22
2023-01-19T07:15:10.131Z,989.26
2023-01-19T07:16:10.170Z,989.31
2023-01-19T07:17:10.115Z,989.33
2023-01-19T07:18:10.099Z,989.34
2023-01-19T07:19:10.074Z,989.34
2023-01-19T07:20:10.066Z,989.36
2023-01-19T07:21:10.061Z,989.36
2023-01-19T07:22:10.044Z,989.37
2023-01-19T07:23:10.298Z,989.41
2023-01-19T07:24:10.024Z,989.41
2023-01-19T07:25:09.993Z,989.45
2023-01-19T07:26:10.017Z,989.44
2023-01-19T07:27:09.992Z,989.45
2023-01-19T07:28:10.931Z,989.49
2023-01-19T07:29:10.311Z,989.47
2023-01-19T07:30:09.984Z,989.47
2023-01-19T07:31:10.059Z,989.46
2023-01-19T07:32:09.915Z,989.49
2023-01-19T07:33:09.896Z,989.50
2023-01-19T07:34:11.719Z,989.49
2023-01-19T07:35:10.634Z,989.55
2023-01-19T07:36:09.904Z,989.53
2023-01-19T07:37:09.855Z,989.57
2023-01-19T07:38:09.839Z,989.59
2023-01-19T07:39:09.860Z,989.64
2023-01-19T07:40:09.833Z,989.66
2023-01-19T07:41:10.100Z,989.67
2023-01-19T07:42:09.798Z,989.62
2023-01-19T07:43:09.778Z,989.65
2023-01-19T07:44:10.004Z,989.63
2023-01-19T07:45:09.800Z,989.64
2023-01-19T07:46:09.896Z,989.71
2023-01-19T07:47:09.748Z,989.71
2023-01-19T07:48:09.964Z,989.68
2023-01-19T07:49:09.751Z,989.66
2023-01-19T07:50:09.703Z,989.67
2023-01-19T07:51:12.631Z,989.69
2023-01-19T07:52:09.719Z,989.70
2023-01-19T07:53:09.653Z,989.70
2023-01-19T07:54:09.652Z,989.74
2023-01-19T07:55:09.661Z,989.75
2023-01-19T07:56:09.631Z,989.74
2023-01-19T07:57:09.636Z,989.72
2023-01-19T07:58:09.600Z,989.79
2023-01-19T07:59:09.811Z,989.71
2023-01-19T08:00:09.580Z,989.76
2023-01-19T08:01:09.786Z,989.77
2023-01-19T08:02:09.656Z,989.77
2023-01-19T08:03:09.529Z,989.77
2023-01-19T08:04:09.599Z,989.75
2023-01-19T08:05:10.743Z,989.73
2023-01-19T08:06:09.606Z,989.78
2023-01-19T08:07:09.502Z,989.77
2023-01-19T08:08:09.458Z,989.81
2023-01-19T08:09:09.451Z,989.77
2023-01-19T08:10:09.463Z,989.81
2023-01-19T08:11:13.690Z,989.81
2023-01-19T08:12:11.428Z,989.84
2023-01-19T08:13:09.399Z,989.82
2023-01-19T08:14:09.421Z,989.83
2023-01-19T08:15:09.617Z,989.85
2023-01-19T08:16:09.447Z,989.84
2023-01-19T08:17:09.362Z,989.74
2023-01-19T08:18:09.364Z,989.79
2023-01-19T08:19:09.570Z,989.77
2023-01-19T08:20:09.324Z,989.81
2023-01-19T08:21:09.317Z,989.84
2023-01-19T08:22:09.300Z,989.82
2023-01-19T08:23:09.279Z,989.84
2023-01-19T08:24:09.345Z,989.89
2023-01-19T08:25:09.257Z,989.83
2023-01-19T08:26:09.245Z,989.87
2023-01-19T08:27:09.255Z,989.86
2023-01-19T08:28:09.567Z,989.87
2023-01-19T08:29:09.223Z,989.89
2023-01-19T08:30:09.199Z,989.84
2023-01-19T08:31:19.780Z,989.87
2023-01-19T08:32:10.275Z,989.84
2023-01-19T08:33:09.182Z,989.76
2023-01-19T08:34:09.142Z,989.87
2023-01-19T08:35:09.141Z,989.86
2023-01-19T08:36:09.406Z,989.83
2023-01-19T08:37:09.145Z,989.84
2023-01-19T08:38:09.375Z,989.91
2023-01-19T08:39:09.102Z,989.90
2023-01-19T08:40:09.372Z,989.91
2023-01-19T08:41:09.114Z,989.92
2023-01-19T08:42:09.052Z,989.99
2023-01-19T08:43:09.028Z,989.96
2023-01-19T08:44:09.024Z,989.93
2023-01-19T08:45:09.001Z,989.97
2023-01-19T08:46:09.062Z,989.97
2023-01-19T08:47:09.007Z,989.96
2023-01-19T08:48:08.971Z,989.96
2023-01-19T08:49:08.943Z,989.95
2023-01-19T08:50:08.958Z,989.94
2023-01-19T08:51:08.969Z,989.93
2023-01-19T08:52:09.215Z,989.95
2023-01-19T08:53:08.900Z,989.93
2023-01-19T08:54:08.940Z,989.92
2023-01-19T08:55:09.025Z,989.94
2023-01-19T08:56:08.924Z,989.94
2023-01-19T08:57:08.896Z,989.95
2023-01-19T08:58:08.925Z,989.95
2023-01-19T08:59:11.364Z,989.99
2023-01-19T09:00:08.829Z,989.98
2023-01-19T09:01:08.879Z,989.98
2023-01-19T09:02:08.824Z,990.02
2023-01-19T09:03:08.831Z,990.06
2023-01-19T09:04:08.786Z,990.06
2023-01-19T09:05:08.772Z,989.96
2023-01-19T09:06:08.817Z,990.05
2023-01-19T09:07:08.732Z,990.02
2023-01-19T09:08:08.780Z,990.06
2023-01-19T09:09:08.708Z,990.02
2023-01-19T09:10:08.704Z,990.04
2023-01-19T09:11:08.701Z,990.06
2023-01-19T09:12:08.657Z,990.04
2023-01-19T09:13:08.724Z,990.10
2023-01-19T09:14:08.680Z,990.06
2023-01-19T09:15:08.662Z,990.01
2023-01-19T09:16:08.982Z,990.01
2023-01-19T09:17:08.595Z,990.05
2023-01-19T09:18:09.552Z,990.06
2023-01-19T09:19:08.575Z,990.01
2023-01-19T09:20:08.591Z,990.03
2023-01-19T09:21:08.589Z,990.02
2023-01-19T09:22:08.609Z,990.01
2023-01-19T09:23:08.531Z,990.02
2023-01-19T09:24:08.520Z,990.01
2023-01-19T09:25:08.548Z,989.99
2023-01-19T09:26:08.517Z,989.97
2023-01-19T09:27:08.502Z,989.96
2023-01-19T09:28:08.525Z,989.94
2023-01-19T09:29:08.483Z,989.95
2023-01-19T09:30:08.703Z,989.96
2023-01-19T09:31:08.621Z,989.95
2023-01-19T09:32:08.438Z,989.92
2023-01-19T09:33:08.430Z,989.95
2023-01-19T09:34:08.398Z,989.94
2023-01-19T09:35:08.388Z,990.00
2023-01-19T09:36:08.393Z,989.98
2023-01-19T09:37:08.352Z,989.99
2023-01-19T09:38:08.355Z,990.03
2023-01-19T09:39:08.322Z,989.96
2023-01-19T09:40:08.419Z,989.91
2023-01-19T09:41:08.418Z,989.93
2023-01-19T09:42:08.558Z,989.96
2023-01-19T09:43:08.295Z,989.96
2023-01-19T09:44:08.339Z,989.98
2023-01-19T09:45:08.300Z,989.96
2023-01-19T09:46:08.322Z,989.99
2023-01-19T09:47:08.511Z,989.97
2023-01-19T09:48:08.236Z,989.97
2023-01-19T09:49:08.436Z,989.95
2023-01-19T09:50:08.211Z,989.97
2023-01-19T09:51:08.220Z,989.98
2023-01-19T09:52:08.174Z,990.02
2023-01-19T09:53:08.164Z,989.96
2023-01-19T09:54:08.533Z,990.01
2023-01-19T09:55:08.139Z,989.98
2023-01-19T09:56:08.181Z,989.92
2023-01-19T09:57:08.111Z,989.91
2023-01-19T09:58:08.148Z,989.92
2023-01-19T09:59:08.085Z,989.90
2023-01-19T10:00:08.090Z,989.92
2023-01-19T10:01:08.207Z,989.91
2023-01-19T10:02:08.051Z,989.94
2023-01-19T10:03:08.102Z,989.89
2023-01-19T10:04:08.038Z,989.92
2023-01-19T10:05:09.044Z,989.89
2023-01-19T10:06:08.018Z,989.89
2023-01-19T10:07:07.994Z,989.79
2023-01-19T10:08:07.972Z,989.83
2023-01-19T10:09:07.981Z,989.88
2023-01-19T10:10:07.979Z,989.85
2023-01-19T10:11:07.958Z,989.81
2023-01-19T10:12:07.943Z,989.81
2023-01-19T10:13:07.935Z,989.83
2023-01-19T10:14:09.557Z,989.81
2023-01-19T10:15:07.897Z,989.84
2023-01-19T10:16:07.926Z,989.82
2023-01-19T10:17:07.872Z,989.82
2023-01-19T10:18:07.897Z,989.78
2023-01-19T10:19:11.893Z,989.82
2023-01-19T10:20:07.857Z,989.81
2023-01-19T10:21:07.902Z,989.78
2023-01-19T10:22:07.809Z,989.73
2023-01-19T10:23:07.784Z,989.71
2023-01-19T10:24:08.083Z,989.77
2023-01-19T10:25:07.831Z,989.76
2023-01-19T10:26:08.135Z,989.74
2023-01-19T10:27:07.746Z,989.74
2023-01-19T10:28:07.738Z,989.79
2023-01-19T10:29:07.722Z,989.77
2023-01-19T10:30:07.722Z,989.70
2023-01-19T10:31:07.757Z,989.74
2023-01-19T10:32:07.759Z,989.72
2023-01-19T10:33:07.665Z,989.80
2023-01-19T10:34:07.684Z,989.73
2023-01-19T10:35:07.631Z,989.75
2023-01-19T10:36:07.747Z,989.79
2023-01-19T10:37:07.630Z,989.81
2023-01-19T10:38:07.668Z,989.79
2023-01-19T10:39:07.617Z,989.81
2023-01-19T10:40:07.702Z,989.76
2023-01-19T10:41:07.569Z,989.81
2023-01-19T10:42:07.626Z,989.75
2023-01-19T10:43:07.549Z,989.81
2023-01-19T10:44:07.613Z,989.73
2023-01-19T10:45:07.588Z,989.72
2023-01-19T10:46:07.590Z,989.74
2023-01-19T10:47:07.750Z,989.71
2023-01-19T10:48:07.888Z,989.77
2023-01-19T10:49:07.462Z,989.74
2023-01-19T10:50:07.742Z,989.70
2023-01-19T10:51:07.796Z,989.78
2023-01-19T10:52:07.431Z,989.72
2023-01-19T10:53:07.429Z,989.69
2023-01-19T10:54:07.438Z,989.71
2023-01-19T10:55:07.539Z,989.65
2023-01-19T10:56:07.428Z,989.68
2023-01-19T10:57:07.381Z,989.57
2023-01-19T10:58:07.433Z,989.58
2023-01-19T10:59:07.436Z,989.60
2023-01-19T11:00:07.410Z,989.59
2023-01-19T11:01:07.417Z,989.58
2023-01-19T11:02:07.465Z,989.55
2023-01-19T11:03:07.414Z,989.64
2023-01-19T11:04:08.030Z,989.57
2023-01-19T11:05:07.275Z,989.62
2023-01-19T11:06:07.281Z,989.60
2023-01-19T11:07:07.240Z,989.57
2023-01-19T11:08:07.313Z,989.58
2023-01-19T11:09:07.250Z,989.53
2023-01-19T11:10:07.270Z,989.53
2023-01-19T11:11:07.202Z,989.56
2023-01-19T11:12:07.237Z,989.56
2023-01-19T11:13:07.182Z,989.55
2023-01-19T11:14:07.173Z,989.55
2023-01-19T11:15:07.169Z,989.51
2023-01-19T11:16:07.205Z,989.49
2023-01-19T11:17:07.117Z,989.49
2023-01-19T11:18:07.277Z,989.49
2023-01-19T11:19:07.118Z,989.50
2023-01-19T11:20:07.541Z,989.47
2023-01-19T11:21:07.148Z,989.53
2023-01-19T11:22:07.383Z,989.53
2023-01-19T11:23:07.070Z,989.59
2023-01-19T11:24:07.125Z,989.56
2023-01-19T11:25:07.062Z,989.55
2023-01-19T11:26:07.100Z,989.56
2023-01-19T11:27:07.000Z,989.49
2023-01-19T11:28:07.053Z,989.54
2023-01-19T11:29:06.993Z,989.47
2023-01-19T11:30:06.982Z,989.50
2023-01-19T11:31:07.008Z,989.51
2023-01-19T11:32:07.121Z,989.47
2023-01-19T11:33:06.941Z,989.50
2023-01-19T11:34:06.954Z,989.41
2023-01-19T11:35:07.009Z,989.39
2023-01-19T11:36:06.944Z,989.38
2023-01-19T11:37:06.970Z,989.41
2023-01-19T11:38:07.112Z,989.40
2023-01-19T11:39:06.867Z,989.38
2023-01-19T11:40:06.887Z,989.40
2023-01-19T11:41:06.845Z,989.42
2023-01-19T11:42:06.818Z,989.42
2023-01-19T11:43:06.820Z,989.42
2023-01-19T11:44:06.791Z,989.41
2023-01-19T11:45:06.836Z,989.36
2023-01-19T11:46:06.874Z,989.39
2023-01-19T11:47:07.012Z,989.32
2023-01-19T11:48:06.753Z,989.31
2023-01-19T11:49:06.747Z,989.33
2023-01-19T11:50:06.737Z,989.26
2023-01-19T11:51:06.742Z,989.33
2023-01-19T11:52:06.750Z,989.31
2023-01-19T11:53:06.691Z,989.32
2023-01-19T11:54:06.662Z,989.33
2023-01-19T11:55:06.705Z,989.33
2023-01-19T11:56:06.714Z,989.35
2023-01-19T11:57:06.639Z,989.34
2023-01-19T11:58:06.640Z,989.35
2023-01-19T11:59:06.616Z,989.30
2023-01-19T12:00:06.590Z,989.33
2023-01-19T12:01:06.643Z,989.39
2023-01-19T12:02:06.602Z,989.30
2023-01-19T12:03:06.643Z,989.36
2023-01-19T12:04:06.679Z,989.27
2023-01-19T12:05:06.571Z,989.34
2023-01-19T12:06:06.635Z,989.28
2023-01-19T12:07:06.529Z,989.24
2023-01-19T12:08:07.134Z,989.23
2023-01-19T12:09:06.490Z,989.23
2023-01-19T12:10:06.473Z,989.27
2023-01-19T12:11:06.469Z,989.29
2023-01-19T12:12:06.452Z,989.27
2023-01-19T12:13:06.439Z,989.33
2023-01-19T12:14:06.425Z,989.32
2023-01-19T12:15:06.425Z,989.38
2023-01-19T12:16:06.431Z,989.43
2023-01-19T12:17:06.422Z,989.43
2023-01-19T12:18:06.351Z,989.38
2023-01-19T12:19:06.350Z,989.40
2023-01-19T12:20:06.338Z,989.37
2023-01-19T12:21:06.352Z,989.35
2023-01-19T12:22:06.298Z,989.34
2023-01-19T12:23:06.342Z,989.35
2023-01-19T12:24:06.580Z,989.31
2023-01-19T12:25:06.291Z,989.33
2023-01-19T12:26:06.272Z,989.37
2023-01-19T12:27:06.259Z,989.41
2023-01-19T12:28:06.226Z,989.38